Time;durP1;ratioP1;P1;durP2;ratioP2;P2;SDS_P1;SDS_P2;PMS_P1;PMS_P2;Temp;Humidity;BMP_temperature;BMP_pressure;BME280_temperature;BME280_humidity;BME280_pressure;Samples;Min_cycle;Max_cycle;Signal;HPM_P1;HPM_P2
2023/03/06 00:00:55;;;;;;;11.80;5.82;;;;;;;13.28;51.33;95905.53;4997373;28;20379;-26
2023/03/06 00:03:21;;;;;;;13.88;5.80;;;;;;;13.29;51.17;95907.06;4997123;28;20022;-26
2023/03/06 00:05:47;;;;;;;12.90;6.05;;;;;;;13.29;51.48;95904.31;4997844;28;20383;-27
2023/03/06 00:08:13;;;;;;;17.60;7.07;;;;;;;13.28;51.30;95904.78;4997006;28;20019;-27
2023/03/06 00:10:39;;;;;;;18.83;6.88;;;;;;;13.24;50.89;95910.38;5003272;28;20034;-27
2023/03/06 00:13:10;;;;;;;17.65;7.32;;;;;;;13.06;51.48;95915.81;4998967;28;20077;-27
2023/03/06 00:15:36;;;;;;;15.05;5.97;;;;;;;13.16;51.02;95914.63;5000833;28;20687;-27
2023/03/06 00:18:04;;;;;;;18.50;6.70;;;;;;;13.15;50.91;95918.56;4997724;28;20417;-27
2023/03/06 00:20:31;;;;;;;12.40;6.43;;;;;;;13.20;50.80;95915.25;5001026;28;20466;-27
2023/03/06 00:22:56;;;;;;;17.88;6.03;;;;;;;13.10;50.99;95915.69;4997282;28;20045;-26
2023/03/06 00:25:22;;;;;;;14.70;6.65;;;;;;;13.16;51.16;95920.06;4996888;28;20378;-27
2023/03/06 00:27:48;;;;;;;16.38;6.60;;;;;;;13.09;51.51;95920.38;4995998;28;20033;-27
2023/03/06 00:30:19;;;;;;;14.60;6.93;;;;;;;13.14;51.43;95914.31;5003622;28;20381;-26
2023/03/06 00:32:45;;;;;;;16.73;6.43;;;;;;;13.07;51.52;95908.41;4996685;28;20112;-26
2023/03/06 00:35:12;;;;;;;16.10;6.55;;;;;;;13.26;50.75;95902.50;4997179;28;20050;-27
2023/03/06 00:37:38;;;;;;;12.00;5.35;;;;;;;13.11;51.68;95895.38;4996319;28;20532;-26
2023/03/06 00:40:10;;;;;;;17.17;6.93;;;;;;;13.06;51.33;95902.22;4996452;28;20030;-26
2023/03/06 00:42:36;;;;;;;14.20;6.53;;;;;;;13.22;51.37;95895.72;5005258;28;20435;-26
2023/03/06 00:45:01;;;;;;;16.35;6.75;;;;;;;13.08;51.51;95894.34;5007117;28;20104;-27
2023/03/06 00:47:27;;;;;;;13.35;5.75;;;;;;;13.14;51.33;95897.19;5005007;28;20026;-27
2023/03/06 00:49:52;;;;;;;14.50;5.97;;;;;;;13.25;50.99;95890.09;4995908;28;20026;-27
2023/03/06 00:52:18;;;;;;;13.52;5.95;;;;;;;13.02;51.10;95890.72;4996189;28;20030;-27
2023/03/06 00:54:43;;;;;;;15.20;5.63;;;;;;;13.03;51.40;95875.13;4996734;28;20592;-26
2023/03/06 00:57:10;;;;;;;11.73;6.45;;;;;;;13.02;50.89;95868.94;4996200;28;20398;-26
2023/03/06 00:59:35;;;;;;;14.05;6.22;;;;;;;13.13;51.90;95869.22;5003053;28;20017;-27
2023/03/06 01:02:02;;;;;;;11.43;5.72;;;;;;;13.16;50.66;95865.63;4998601;28;20042;-27
2023/03/06 01:04:27;;;;;;;15.23;6.28;;;;;;;12.94;51.75;95865.78;4999669;28;20026;-27
2023/03/06 01:06:52;;;;;;;14.80;6.10;;;;;;;13.06;51.06;95872.25;4996493;28;20488;-26
2023/03/06 01:09:18;;;;;;;13.93;5.95;;;;;;;13.02;51.15;95865.47;4996036;28;20037;-26
2023/03/06 01:11:43;;;;;;;15.85;5.90;;;;;;;13.01;50.84;95864.69;4995830;28;20019;-27
2023/03/06 01:14:09;;;;;;;12.98;5.70;;;;;;;12.97;51.71;95850.50;5002116;28;20092;-27
2023/03/06 01:16:35;;;;;;;16.85;6.63;;;;;;;12.99;51.51;95860.91;5002199;28;20068;-26
2023/03/06 01:19:00;;;;;;;12.10;5.90;;;;;;;12.97;51.76;95847.78;5002601;28;20109;-26
2023/03/06 01:21:25;;;;;;;11.98;6.13;;;;;;;12.93;51.59;95858.06;4999705;28;20013;-26
2023/03/06 01:23:51;;;;;;;14.98;6.93;;;;;;;12.85;52.76;95856.88;4997382;28;20030;-27
2023/03/06 01:26:16;;;;;;;11.85;6.38;;;;;;;12.84;52.82;95839.03;4996240;28;20068;-27
2023/03/06 01:28:42;;;;;;;15.65;6.00;;;;;;;13.12;52.08;95845.94;5000277;28;20470;-27
2023/03/06 01:31:08;;;;;;;13.68;6.38;;;;;;;12.99;52.36;95839.13;4997183;28;20065;-26
2023/03/06 01:33:34;;;;;;;11.40;6.40;;;;;;;13.14;52.13;95834.59;5002430;28;20021;-27
2023/03/06 01:36:06;;;;;;;17.45;6.22;;;;;;;13.00;52.76;95835.97;5002231;28;20415;-26
2023/03/06 01:38:32;;;;;;;15.38;7.00;;;;;;;13.02;52.29;95828.09;5002723;28;20104;-26
2023/03/06 01:40:57;;;;;;;17.95;6.60;;;;;;;13.01;52.46;95826.59;4995185;28;20054;-27
2023/03/06 01:43:22;;;;;;;13.57;7.05;;;;;;;12.99;52.90;95831.72;4995939;28;20033;-27
2023/03/06 01:45:48;;;;;;;12.23;5.95;;;;;;;12.94;52.79;95827.69;5001890;28;20481;-27
2023/03/06 01:48:14;;;;;;;13.10;8.07;;;;;;;12.98;53.10;95830.25;5000809;28;20026;-26
2023/03/06 01:50:39;;;;;;;15.00;7.18;;;;;;;13.16;51.94;95826.75;4997388;28;20382;-26
2023/03/06 01:53:06;;;;;;;16.33;7.20;;;;;;;13.00;51.97;95821.59;5000542;28;20029;-26
2023/03/06 01:55:33;;;;;;;11.60;6.07;;;;;;;12.89;53.15;95813.91;4996173;28;20373;-26
2023/03/06 01:58:04;;;;;;;16.85;7.25;;;;;;;13.20;52.15;95821.91;4995316;28;20109;-26
2023/03/06 02:00:29;;;;;;;12.40;5.90;;;;;;;12.87;52.80;95817.09;4994881;28;20026;-26
2023/03/06 02:03:17;;;;;;;17.25;7.38;;;;;;;12.87;52.40;95813.59;5004817;28;20029;-27
2023/03/06 02:05:43;;;;;;;18.80;8.40;;;;;;;12.91;52.58;95814.97;5003815;28;20533;-26
2023/03/06 02:08:12;;;;;;;15.63;7.68;;;;;;;12.83;52.96;95810.31;4995183;28;20160;-26
2023/03/06 02:10:41;;;;;;;16.75;7.93;;;;;;;12.83;53.58;95813.78;4993694;28;20018;-27
2023/03/06 02:13:07;;;;;;;19.38;8.30;;;;;;;12.83;53.80;95815.75;5008220;28;20019;-27
2023/03/06 02:15:32;;;;;;;20.92;9.05;;;;;;;12.84;54.17;95815.28;4995070;28;20481;-26
2023/03/06 02:17:59;;;;;;;18.52;8.65;;;;;;;12.97;53.89;95811.66;5001923;28;20044;-26
2023/03/06 02:20:42;;;;;;;20.65;8.90;;;;;;;13.05;53.69;95813.59;4998155;28;20032;-27
2023/03/06 02:23:11;;;;;;;19.08;8.60;;;;;;;13.00;54.05;95808.00;5004921;28;20049;-27
2023/03/06 02:25:41;;;;;;;17.42;9.43;;;;;;;13.00;54.31;95814.19;5000295;28;20545;-27
2023/03/06 02:28:09;;;;;;;18.45;9.05;;;;;;;12.84;54.61;95809.84;4995932;28;20018;-26
2023/03/06 02:30:35;;;;;;;25.50;10.07;;;;;;;12.86;54.79;95809.38;4995110;28;20034;-26
2023/03/06 02:33:02;;;;;;;26.85;10.00;;;;;;;12.86;55.53;95803.94;4994857;28;20097;-26
2023/03/06 02:35:33;;;;;;;24.20;11.63;;;;;;;12.82;55.44;95806.81;5002189;28;20397;-26
2023/03/06 02:38:03;;;;;;;27.67;11.25;;;;;;;12.76;55.96;95802.44;5001828;28;20076;-26
2023/03/06 02:40:29;;;;;;;25.90;12.30;;;;;;;12.86;56.11;95793.81;4995532;28;20048;-26
2023/03/06 02:42:57;;;;;;;22.02;11.70;;;;;;;12.98;55.58;95799.56;4994802;28;20026;-27
2023/03/06 02:45:37;;;;;;;30.85;12.15;;;;;;;12.79;56.47;95790.66;5005751;28;20050;-27
2023/03/06 02:48:03;;;;;;;30.60;12.88;;;;;;;12.86;56.72;95795.75;4998525;28;20022;-26
2023/03/06 02:50:30;;;;;;;35.70;12.13;;;;;;;12.87;56.79;95789.88;5005862;28;20413;-26
2023/03/06 02:52:55;;;;;;;29.38;12.10;;;;;;;13.02;56.13;95787.28;5001569;28;20474;-26
2023/03/06 02:55:21;;;;;;;29.50;11.90;;;;;;;13.00;56.21;95788.94;5001601;28;20027;-26
2023/03/06 02:57:46;;;;;;;28.38;12.23;;;;;;;13.11;55.96;95786.50;4998904;28;20920;-26
2023/03/06 03:00:13;;;;;;;26.15;11.65;;;;;;;13.00;56.45;95781.53;4998290;28;20038;-26
2023/03/06 03:02:39;;;;;;;27.95;12.90;;;;;;;13.00;56.35;95778.81;4998928;28;20049;-26
2023/03/06 03:05:05;;;;;;;26.30;11.60;;;;;;;12.94;56.77;95778.69;5005179;28;20417;-26
2023/03/06 03:07:30;;;;;;;26.35;11.65;;;;;;;12.83;57.08;95769.50;5004771;28;20033;-26
2023/03/06 03:09:56;;;;;;;30.88;12.35;;;;;;;12.92;57.06;95766.75;4998518;28;20037;-26
2023/03/06 03:12:22;;;;;;;28.45;12.30;;;;;;;12.88;57.26;95764.16;4997979;28;20026;-26
2023/03/06 03:14:48;;;;;;;27.35;13.25;;;;;;;13.06;56.96;95765.34;4998662;28;20022;-26
2023/03/06 03:17:13;;;;;;;26.35;12.50;;;;;;;12.95;57.19;95763.09;4997832;28;20429;-26
2023/03/06 03:19:39;;;;;;;27.77;12.75;;;;;;;12.87;57.36;95764.63;5003381;28;20026;-26
2023/03/06 03:22:05;;;;;;;30.63;14.00;;;;;;;13.09;56.75;95751.59;5007111;28;20033;-26
2023/03/06 03:24:30;;;;;;;30.80;13.18;;;;;;;13.02;57.19;95754.59;5006315;28;20110;-27
2023/03/06 03:26:55;;;;;;;28.42;13.48;;;;;;;13.04;57.33;95760.34;4997965;28;20022;-26
2023/03/06 03:29:21;;;;;;;24.80;12.60;;;;;;;12.80;57.79;95762.22;4998234;28;20112;-26
2023/03/06 03:31:47;;;;;;;28.23;13.10;;;;;;;12.92;57.33;95747.69;4997717;28;20030;-26
2023/03/06 03:34:13;;;;;;;27.73;13.40;;;;;;;13.00;56.95;95748.09;5004756;28;20513;-26
2023/03/06 03:36:38;;;;;;;27.02;12.45;;;;;;;13.04;56.99;95749.47;5003938;28;20034;-26
2023/03/06 03:39:04;;;;;;;29.05;13.18;;;;;;;13.21;56.37;95742.50;5003643;28;20037;-27
2023/03/06 03:41:30;;;;;;;35.75;13.73;;;;;;;12.90;57.33;95744.66;5011170;28;20359;-26
2023/03/06 03:43:55;;;;;;;31.05;14.63;;;;;;;12.95;57.19;95739.38;4997272;28;20030;-26
2023/03/06 03:46:21;;;;;;;25.38;13.20;;;;;;;12.92;57.46;95743.00;5005237;28;20053;-26
2023/03/06 03:48:46;;;;;;;25.83;13.15;;;;;;;12.94;57.65;95739.81;4999873;28;20040;-26
2023/03/06 03:51:15;;;;;;;25.80;13.13;;;;;;;13.04;57.45;95744.03;5001165;28;20561;-26
2023/03/06 03:53:41;;;;;;;29.27;15.07;;;;;;;12.94;57.37;95739.81;5004360;28;20033;-27
2023/03/06 03:56:07;;;;;;;28.05;14.38;;;;;;;12.90;57.57;95741.94;5003301;28;20512;-26
2023/03/06 03:58:32;;;;;;;27.45;14.63;;;;;;;12.92;57.61;95736.81;4997631;28;20021;-27
2023/03/06 04:00:58;;;;;;;30.35;14.48;;;;;;;13.02;57.23;95743.72;4997013;28;20088;-26
2023/03/06 04:03:23;;;;;;;28.00;14.57;;;;;;;13.04;57.27;95746.75;5003394;28;20065;-27
2023/03/06 04:05:49;;;;;;;26.15;13.13;;;;;;;12.84;57.91;95730.19;5004218;28;20075;-27
2023/03/06 04:08:14;;;;;;;24.38;13.27;;;;;;;12.97;57.47;95733.47;5000928;28;20100;-27
2023/03/06 04:10:40;;;;;;;25.20;14.02;;;;;;;12.98;57.13;95729.53;4999610;28;20467;-26
2023/03/06 04:13:05;;;;;;;23.90;11.73;;;;;;;12.86;57.51;95738.63;5003889;28;20024;-26
2023/03/06 04:15:31;;;;;;;24.05;12.05;;;;;;;13.05;57.14;95734.66;4996934;28;20482;-26
2023/03/06 04:17:56;;;;;;;25.27;13.75;;;;;;;12.94;56.96;95735.13;4997407;28;20026;-27
2023/03/06 04:20:22;;;;;;;22.92;13.40;;;;;;;12.92;57.41;95736.81;5003769;28;20030;-27
2023/03/06 04:22:47;;;;;;;23.55;13.20;;;;;;;12.85;57.89;95728.97;4994916;28;20030;-26
2023/03/06 04:25:13;;;;;;;25.65;12.05;;;;;;;12.93;57.32;95732.88;5003613;28;20049;-26
2023/03/06 04:27:38;;;;;;;24.60;12.45;;;;;;;12.85;57.57;95726.25;5003863;28;20026;-27
2023/03/06 04:30:06;;;;;;;22.17;12.88;;;;;;;12.83;57.67;95728.66;4995895;28;20033;-26
2023/03/06 04:32:31;;;;;;;24.55;11.73;;;;;;;12.79;57.95;95728.06;4996521;28;20050;-27
2023/03/06 04:34:57;;;;;;;24.60;13.52;;;;;;;12.82;58.02;95729.88;4996602;28;20053;-27
2023/03/06 04:37:24;;;;;;;25.60;13.02;;;;;;;13.03;57.10;95731.63;4997737;28;20085;-27
2023/03/06 04:39:50;;;;;;;24.08;12.63;;;;;;;12.74;57.41;95734.88;5001817;28;20045;-26
2023/03/06 04:42:17;;;;;;;25.30;13.85;;;;;;;12.93;57.31;95738.31;5003212;28;20519;-26
2023/03/06 04:44:43;;;;;;;27.02;13.43;;;;;;;12.89;57.60;95732.28;4999675;28;20026;-26
2023/03/06 04:47:10;;;;;;;26.65;13.55;;;;;;;12.84;57.38;95735.63;5000139;28;20089;-26
2023/03/06 04:49:36;;;;;;;26.13;13.88;;;;;;;12.89;57.27;95740.44;4996909;28;20081;-26
2023/03/06 04:52:02;;;;;;;22.35;12.40;;;;;;;12.76;57.90;95737.13;4996371;28;20022;-26
2023/03/06 04:54:27;;;;;;;25.60;12.70;;;;;;;12.83;57.61;95734.13;5003361;28;20096;-26
2023/03/06 04:56:53;;;;;;;23.23;13.05;;;;;;;12.74;57.73;95725.94;4998402;28;20528;-26
2023/03/06 04:59:18;;;;;;;31.65;14.77;;;;;;;12.74;57.30;95731.38;5000147;28;20032;-27
2023/03/06 05:01:43;;;;;;;26.48;12.77;;;;;;;12.95;57.56;95739.38;4995171;28;20104;-27
2023/03/06 05:04:09;;;;;;;25.58;14.00;;;;;;;12.80;57.96;95729.56;5003466;28;20030;-27
2023/03/06 05:06:34;;;;;;;29.65;14.32;;;;;;;12.78;57.66;95732.75;4995502;28;20081;-26
2023/03/06 05:09:00;;;;;;;24.55;13.50;;;;;;;12.82;57.38;95725.19;4996014;28;20018;-26
2023/03/06 05:11:25;;;;;;;22.23;12.68;;;;;;;12.87;57.00;95718.34;5002261;28;20374;-26
2023/03/06 05:13:51;;;;;;;23.95;12.55;;;;;;;13.04;57.08;95733.13;5003117;28;20022;-26
2023/03/06 05:16:16;;;;;;;23.02;12.63;;;;;;;12.94;57.02;95726.97;4995550;28;20025;-26
2023/03/06 05:18:42;;;;;;;28.50;12.65;;;;;;;13.03;56.86;95726.19;4995990;28;20041;-27
2023/03/06 05:21:07;;;;;;;23.35;12.20;;;;;;;12.84;57.48;95722.78;4996488;28;20025;-26
2023/03/06 05:23:37;;;;;;;23.20;12.32;;;;;;;12.91;57.63;95727.13;4995483;28;20073;-27
2023/03/06 05:26:12;;;;;;;25.13;12.45;;;;;;;12.97;57.05;95722.59;4995475;28;20121;-27
2023/03/06 05:28:38;;;;;;;28.67;13.80;;;;;;;12.91;57.17;95725.16;4997977;28;20022;-27
2023/03/06 05:31:04;;;;;;;23.20;11.48;;;;;;;12.89;57.34;95727.59;5004758;28;20029;-27
2023/03/06 05:33:34;;;;;;;22.83;11.93;;;;;;;12.85;57.84;95729.72;4995483;28;20026;-26
2023/03/06 05:36:00;;;;;;;24.42;12.55;;;;;;;12.69;57.78;95726.59;4995410;28;20069;-26
2023/03/06 05:38:26;;;;;;;29.60;13.27;;;;;;;12.86;58.07;95727.72;4996184;28;20029;-26
2023/03/06 05:40:52;;;;;;;25.65;13.32;;;;;;;12.78;57.93;95721.13;4995438;28;20025;-26
2023/03/06 05:43:17;;;;;;;25.25;12.60;;;;;;;12.78;57.90;95726.56;5002462;28;20053;-27
2023/03/06 05:45:43;;;;;;;29.33;12.55;;;;;;;12.86;57.64;95725.00;5003726;28;20510;-27
2023/03/06 05:48:11;;;;;;;29.33;13.48;;;;;;;12.83;57.80;95720.50;4999325;28;20493;-27
2023/03/06 05:50:36;;;;;;;25.38;11.95;;;;;;;12.73;57.83;95727.19;4996017;28;20058;-27
2023/03/06 05:53:02;;;;;;;16.45;9.48;;;;;;;12.68;58.46;95722.34;4995173;28;20506;-27
2023/03/06 05:55:28;;;;;;;16.92;9.30;;;;;;;12.72;57.84;95723.72;4996180;28;20368;-26
2023/03/06 05:57:53;;;;;;;19.90;10.35;;;;;;;12.77;57.51;95720.34;4995053;28;20018;-26
2023/03/06 06:00:20;;;;;;;27.92;12.52;;;;;;;13.01;57.03;95723.16;5001522;28;20030;-26
2023/03/06 06:02:45;;;;;;;27.42;12.55;;;;;;;12.81;57.32;95717.47;5002407;28;20581;-26
2023/03/06 06:05:12;;;;;;;22.60;12.23;;;;;;;12.75;57.42;95728.22;4995013;28;20026;-26
2023/03/06 06:07:38;;;;;;;29.35;13.18;;;;;;;12.74;57.55;95726.72;4994071;28;20055;-26
2023/03/06 06:10:05;;;;;;;27.05;13.38;;;;;;;12.72;57.52;95731.88;4995468;28;20021;-27
2023/03/06 06:12:31;;;;;;;31.63;13.18;;;;;;;12.86;57.26;95722.28;5000465;28;20377;-27
2023/03/06 06:14:57;;;;;;;28.73;14.23;;;;;;;12.76;57.67;95728.97;5004932;28;20030;-27
2023/03/06 06:17:22;;;;;;;24.55;12.85;;;;;;;12.75;57.87;95732.91;5001337;28;20029;-27
2023/03/06 06:19:48;;;;;;;29.67;13.00;;;;;;;12.73;57.86;95727.19;5005400;28;20482;-27
2023/03/06 06:22:13;;;;;;;24.88;12.43;;;;;;;12.92;56.99;95736.81;4999481;28;20053;-26
2023/03/06 06:24:39;;;;;;;24.63;12.93;;;;;;;12.87;57.37;95735.44;4998702;28;20085;-27
2023/03/06 06:27:04;;;;;;;21.27;11.95;;;;;;;12.74;57.96;95736.84;5005482;28;20024;-27
2023/03/06 06:29:31;;;;;;;25.48;11.38;;;;;;;12.48;59.09;95736.44;5005271;28;20022;-27
2023/03/06 06:31:57;;;;;;;21.88;11.25;;;;;;;12.63;58.38;95742.00;5005212;28;20033;-27
2023/03/06 06:34:23;;;;;;;21.23;10.27;;;;;;;12.74;58.29;95747.72;4999451;28;20018;-26
2023/03/06 06:36:49;;;;;;;20.35;10.50;;;;;;;12.88;58.01;95741.66;4998674;28;20428;-27
2023/03/06 06:39:17;;;;;;;19.40;8.68;;;;;;;12.76;58.26;95739.84;4999326;28;20022;-27
2023/03/06 06:41:43;;;;;;;15.90;8.70;;;;;;;12.81;58.19;95736.53;4998835;28;20018;-27
2023/03/06 06:44:13;;;;;;;16.98;8.48;;;;;;;12.84;58.50;95733.66;4998362;28;20038;-27
2023/03/06 06:46:39;;;;;;;16.08;7.93;;;;;;;12.89;58.61;95730.31;4999015;28;20029;-26
2023/03/06 06:49:07;;;;;;;23.23;10.45;;;;;;;13.04;58.08;95733.13;5005117;28;20049;-27
2023/03/06 06:51:33;;;;;;;21.88;9.75;;;;;;;13.11;58.12;95745.66;4999051;28;20097;-26
2023/03/06 06:53:59;;;;;;;20.55;8.43;;;;;;;12.77;58.72;95752.25;4998615;28;20025;-27
2023/03/06 06:56:24;;;;;;;19.40;8.57;;;;;;;12.76;59.23;95750.75;4998454;28;20018;-26
2023/03/06 06:58:54;;;;;;;21.60;8.48;;;;;;;12.86;59.05;95754.94;4999037;28;20029;-26
2023/03/06 07:01:21;;;;;;;19.55;8.20;;;;;;;12.81;59.22;95759.06;5003534;28;20038;-26
2023/03/06 07:03:46;;;;;;;18.60;8.35;;;;;;;12.92;58.66;95758.56;5007357;28;20398;-26
2023/03/06 07:06:12;;;;;;;20.60;7.55;;;;;;;13.03;58.89;95764.28;5004147;28;20022;-26
2023/03/06 07:08:37;;;;;;;18.17;7.90;;;;;;;13.02;58.72;95773.66;4998186;28;20034;-26
2023/03/06 07:11:11;;;;;;;20.85;7.90;;;;;;;13.04;58.91;95771.25;4998658;28;20029;-26
2023/03/06 07:13:37;;;;;;;18.65;8.75;;;;;;;12.88;59.25;95775.06;4998086;28;20024;-26
2023/03/06 07:16:03;;;;;;;22.50;9.02;;;;;;;13.02;59.31;95773.66;4998524;28;20022;-26
2023/03/06 07:18:29;;;;;;;23.77;9.48;;;;;;;12.99;59.29;95780.03;5004336;28;20022;-27
2023/03/06 07:20:57;;;;;;;22.25;8.35;;;;;;;13.12;58.67;95774.38;5004892;28;20021;-27
2023/03/06 07:23:25;;;;;;;18.75;7.68;;;;;;;12.81;59.61;95774.63;4997711;28;20022;-27
2023/03/06 07:25:51;;;;;;;21.80;9.02;;;;;;;13.13;58.81;95773.94;4997844;28;20029;-26
2023/03/06 07:28:17;;;;;;;18.35;9.00;;;;;;;13.02;59.12;95781.06;4998426;28;20500;-26
2023/03/06 07:30:42;;;;;;;17.77;8.80;;;;;;;13.02;59.16;95784.56;4996969;28;20034;-26
2023/03/06 07:33:08;;;;;;;20.25;8.50;;;;;;;13.00;59.29;95786.97;4997670;28;20015;-26
2023/03/06 07:35:34;;;;;;;23.85;8.30;;;;;;;12.91;59.79;95784.28;5007421;28;20064;-26
2023/03/06 07:37:59;;;;;;;17.80;8.52;;;;;;;13.05;59.29;95791.06;5004072;28;20054;-26
2023/03/06 07:40:25;;;;;;;20.20;9.25;;;;;;;13.00;59.92;95789.69;4998312;28;20033;-27
2023/03/06 07:42:55;;;;;;;21.52;7.70;;;;;;;13.02;59.98;95800.88;4997447;28;20085;-27
2023/03/06 07:45:21;;;;;;;17.70;7.13;;;;;;;13.01;59.87;95799.38;5005291;28;20030;-26
2023/03/06 07:47:49;;;;;;;23.27;7.93;;;;;;;13.04;59.93;95798.47;4997447;28;20026;-26
2023/03/06 07:50:14;;;;;;;22.70;9.23;;;;;;;13.02;60.01;95794.69;5003833;28;20033;-26
2023/03/06 07:52:40;;;;;;;23.20;8.38;;;;;;;13.11;60.04;95802.81;4998147;28;20022;-27
2023/03/06 07:55:06;;;;;;;21.27;8.75;;;;;;;13.20;59.89;95795.44;4997368;28;20026;-27
2023/03/06 07:57:31;;;;;;;18.27;7.93;;;;;;;13.19;59.78;95802.09;4998083;28;20026;-27
2023/03/06 07:59:57;;;;;;;15.00;7.55;;;;;;;12.95;60.63;95799.25;4997079;28;20421;-26
2023/03/06 08:02:22;;;;;;;22.67;7.80;;;;;;;13.19;59.94;95802.09;4996929;28;20098;-27
2023/03/06 08:04:52;;;;;;;21.88;8.32;;;;;;;13.16;59.91;95800.28;4996925;28;20030;-27
2023/03/06 08:07:18;;;;;;;24.15;9.18;;;;;;;13.02;60.57;95795.44;5003546;28;20117;-27
2023/03/06 08:09:43;;;;;;;22.45;8.15;;;;;;;13.14;60.43;95802.69;4997453;28;20157;-26
2023/03/06 08:12:09;;;;;;;19.92;8.40;;;;;;;13.00;60.98;95803.31;4996939;28;20022;-27
2023/03/06 08:14:34;;;;;;;17.88;9.50;;;;;;;13.15;60.31;95803.47;4996921;28;20029;-27
2023/03/06 08:17:00;;;;;;;16.77;8.07;;;;;;;13.06;61.00;95809.66;5003306;28;20033;-26
2023/03/06 08:19:25;;;;;;;17.42;8.98;;;;;;;13.25;60.41;95802.97;5000308;28;20037;-27
2023/03/06 08:21:51;;;;;;;23.17;10.35;;;;;;;13.10;60.55;95807.53;4999483;28;20022;-27
2023/03/06 08:24:17;;;;;;;18.13;9.57;;;;;;;13.25;60.36;95808.41;5001961;28;20084;-27
2023/03/06 08:26:43;;;;;;;25.83;9.20;;;;;;;13.07;61.35;95808.44;5002574;28;20033;-27
2023/03/06 08:29:09;;;;;;;20.15;9.23;;;;;;;13.10;60.98;95804.81;4998646;28;20030;-27
2023/03/06 08:31:38;;;;;;;19.95;9.15;;;;;;;13.03;61.11;95807.09;4995304;28;20383;-27
2023/03/06 08:34:06;;;;;;;17.02;9.15;;;;;;;12.98;61.73;95811.19;5003316;28;20030;-27
2023/03/06 08:36:31;;;;;;;20.13;9.35;;;;;;;13.17;60.64;95818.13;5010169;28;20109;-26
2023/03/06 08:38:58;;;;;;;18.17;9.55;;;;;;;13.01;61.78;95815.69;4996257;28;20529;-26
2023/03/06 08:41:23;;;;;;;21.63;9.05;;;;;;;13.00;61.54;95813.44;4996376;28;20117;-27
2023/03/06 08:43:49;;;;;;;16.42;9.07;;;;;;;13.08;61.41;95826.28;4996316;28;20097;-26
2023/03/06 08:46:14;;;;;;;18.08;8.60;;;;;;;12.91;61.91;95820.41;5003629;28;20031;-27
2023/03/06 08:48:40;;;;;;;13.43;7.95;;;;;;;13.03;60.81;95829.63;4998263;28;20077;-27
2023/03/06 08:51:08;;;;;;;12.60;7.55;;;;;;;13.05;60.94;95835.38;5001359;28;20022;-26
2023/03/06 08:53:34;;;;;;;13.75;6.50;;;;;;;13.08;60.18;95830.97;5003585;28;20014;-26
2023/03/06 08:55:59;;;;;;;14.63;6.38;;;;;;;13.11;60.18;95827.31;4996340;28;20030;-26
2023/03/06 08:58:25;;;;;;;16.88;5.88;;;;;;;13.07;60.62;95832.94;4996247;28;20026;-27
2023/03/06 09:00:50;;;;;;;10.95;5.68;;;;;;;13.03;60.70;95829.63;4996588;28;20498;-27
2023/03/06 09:03:16;;;;;;;14.50;5.32;;;;;;;13.27;59.78;95827.03;5001415;28;20026;-26
2023/03/06 09:05:42;;;;;;;10.52;5.18;;;;;;;13.26;59.39;95823.53;5004985;28;20045;-27
2023/03/06 09:08:07;;;;;;;10.40;4.57;;;;;;;13.12;60.63;95821.44;4995369;28;20466;-27
2023/03/06 09:10:33;;;;;;;11.57;4.68;;;;;;;13.24;60.48;95834.13;4995891;28;20033;-27
2023/03/06 09:12:58;;;;;;;10.93;5.80;;;;;;;13.32;60.63;95820.97;4996241;28;20088;-27
2023/03/06 09:15:24;;;;;;;11.07;5.43;;;;;;;13.24;61.32;95817.78;4995895;28;20049;-27
2023/03/06 09:17:50;;;;;;;10.00;5.30;;;;;;;13.23;61.89;95827.16;4996197;28;20382;-27
2023/03/06 09:20:17;;;;;;;15.45;5.30;;;;;;;13.50;61.07;95818.16;4995727;28;20018;-27
2023/03/06 09:22:44;;;;;;;10.20;4.93;;;;;;;13.54;62.07;95818.75;5002076;28;20018;-27
2023/03/06 09:25:12;;;;;;;12.40;5.35;;;;;;;13.65;61.72;95821.00;5002704;28;20482;-27
2023/03/06 09:27:38;;;;;;;10.57;4.95;;;;;;;13.62;61.23;95811.00;5002773;28;20391;-27
2023/03/06 09:30:05;;;;;;;9.65;5.20;;;;;;;13.73;60.91;95808.53;4999344;28;20092;-27
2023/03/06 09:32:31;;;;;;;9.20;4.43;;;;;;;13.81;59.47;95808.97;4995001;28;20491;-27
2023/03/06 09:34:56;;;;;;;10.43;4.63;;;;;;;13.83;58.91;95820.91;4995855;28;20157;-27
2023/03/06 09:37:22;;;;;;;11.52;5.32;;;;;;;13.75;59.28;95824.41;4996916;28;20026;-27
2023/03/06 09:39:47;;;;;;;9.82;4.18;;;;;;;13.70;59.50;95820.38;5001198;28;20076;-27
2023/03/06 09:42:17;;;;;;;12.38;4.97;;;;;;;13.80;59.14;95835.47;5002238;28;20470;-27
2023/03/06 09:44:49;;;;;;;12.75;5.30;;;;;;;13.68;59.45;95836.44;4998664;28;20374;-28
2023/03/06 09:47:23;;;;;;;10.32;4.75;;;;;;;13.65;59.57;95831.88;4998421;28;20045;-28
2023/03/06 09:50:17;;;;;;;12.13;4.53;;;;;;;13.80;58.94;95824.56;4995293;28;20073;-27
2023/03/06 09:53:14;;;;;;;12.05;4.93;;;;;;;13.59;59.31;95839.19;4995472;28;20156;-27
2023/03/06 09:55:43;;;;;;;10.60;4.82;;;;;;;13.69;59.75;95834.44;4999720;28;20073;-27
2023/03/06 09:58:21;;;;;;;11.65;4.65;;;;;;;13.54;59.93;95839.81;5000544;28;20518;-27
2023/03/06 10:01:12;;;;;;;10.32;4.68;;;;;;;13.57;59.92;95836.16;4995510;28;20746;-28
2023/03/06 10:03:50;;;;;;;9.35;4.47;;;;;;;13.76;60.09;95842.28;4995746;28;20030;-27
2023/03/06 10:06:29;;;;;;;15.57;4.45;;;;;;;13.62;60.55;95830.84;4995061;28;20061;-28
2023/03/06 10:09:03;;;;;;;9.75;4.75;;;;;;;13.53;61.53;95836.31;5004222;28;20443;-27
2023/03/06 10:11:38;;;;;;;6.72;4.00;;;;;;;13.64;61.32;95830.38;5001648;28;20077;-26
2023/03/06 10:14:17;;;;;;;11.80;3.50;;;;;;;13.53;61.21;95828.16;5002184;28;20056;-27
2023/03/06 10:16:42;;;;;;;8.98;3.75;;;;;;;13.64;60.90;95819.47;4995041;28;20034;-27
2023/03/06 10:19:17;;;;;;;7.28;3.75;;;;;;;13.61;61.18;95828.56;4995614;28;20404;-27
2023/03/06 10:22:01;;;;;;;9.55;4.03;;;;;;;13.77;59.50;95824.72;4995130;28;20116;-27
2023/03/06 10:24:45;;;;;;;7.07;3.60;;;;;;;13.58;59.97;95822.09;4994881;28;20069;-27
2023/03/06 10:27:33;;;;;;;9.63;3.88;;;;;;;13.51;59.32;95822.41;4994976;28;20030;-27
2023/03/06 10:30:20;;;;;;;10.25;4.32;;;;;;;13.57;60.08;95822.53;5001346;28;20496;-27
2023/03/06 10:32:57;;;;;;;11.75;4.13;;;;;;;13.55;60.89;95817.56;4995074;28;20054;-27
2023/03/06 10:35:43;;;;;;;6.72;3.80;;;;;;;13.55;60.73;95820.28;4995536;28;20039;-27
2023/03/06 10:38:19;;;;;;;8.82;3.35;;;;;;;13.53;60.79;95817.25;4995252;28;20164;-27
2023/03/06 10:41:02;;;;;;;8.88;3.50;;;;;;;13.59;60.28;95817.41;4995069;28;20516;-27
2023/03/06 10:43:27;;;;;;;5.72;3.92;;;;;;;13.55;60.37;95820.28;5001857;28;20038;-27
2023/03/06 10:45:53;;;;;;;6.28;3.65;;;;;;;13.77;59.20;95820.03;5005938;28;20079;-27
2023/03/06 10:48:22;;;;;;;9.73;4.55;;;;;;;13.76;60.14;95821.25;4997444;28;20036;-27
2023/03/06 10:50:48;;;;;;;8.77;4.03;;;;;;;13.59;60.92;95817.41;4994755;28;20018;-27
2023/03/06 10:53:25;;;;;;;11.30;5.10;;;;;;;13.72;60.01;95817.19;4994632;28;20370;-27
2023/03/06 10:55:59;;;;;;;8.93;4.40;;;;;;;13.53;60.52;95809.09;5002433;28;20093;-27
2023/03/06 10:58:30;;;;;;;5.28;3.42;;;;;;;13.56;60.76;95800.00;4994955;28;20026;-27
2023/03/06 11:01:19;;;;;;;6.95;2.92;;;;;;;13.83;60.72;95801.84;5001890;28;20126;-27
2023/03/06 11:03:45;;;;;;;4.82;2.47;;;;;;;13.78;60.95;95791.56;5000789;28;20057;-27
2023/03/06 11:06:14;;;;;;;6.20;2.72;;;;;;;13.55;61.45;95797.72;4996304;28;20467;-27
2023/03/06 11:08:42;;;;;;;7.22;3.08;;;;;;;13.67;61.12;95794.03;5006113;28;20021;-27
2023/03/06 11:11:12;;;;;;;7.57;3.30;;;;;;;13.78;60.90;95791.56;4998043;28;20021;-27
2023/03/06 11:13:40;;;;;;;6.00;3.03;;;;;;;13.75;61.13;95795.19;5004650;28;20068;-27
2023/03/06 11:16:17;;;;;;;8.88;3.72;;;;;;;13.65;61.05;95785.56;5005077;28;20025;-27
2023/03/06 11:18:55;;;;;;;9.55;4.32;;;;;;;13.62;62.14;95781.03;4997995;28;20034;-27
2023/03/06 11:21:33;;;;;;;10.02;5.00;;;;;;;13.54;62.98;95777.16;4997974;28;20470;-27
2023/03/06 11:24:27;;;;;;;10.23;3.97;;;;;;;13.51;62.62;95770.66;4998620;28;20031;-27
2023/03/06 11:26:58;;;;;;;;;;;;;;;13.64;62.73;95770.44;5008806;28;20133;-27